Time;durP1;ratioP1;P1;durP2;ratioP2;P2;SDS_P1;SDS_P2;PMS_P1;PMS_P2;Temp;Humidity;BMP_temperature;BMP_pressure;BME280_temperature;BME280_humidity;BME280_pressure;Samples;Min_cycle;Max_cycle;Signal;HPM_P1;HPM_P2
2024/01/29 05:33:07;;;;;;;;;29.75;28.25;;;;;16.62;44.63;102183.56;5071032;28;45271;-76
2024/01/29 05:35:32;;;;;;;;;28.00;26.50;;;;;16.63;45.04;102198.88;5074831;28;46069;-75
2024/01/29 05:37:57;;;;;;;;;25.75;25.50;;;;;16.68;44.94;102194.09;5073923;28;59916;-75
2024/01/29 05:40:22;;;;;;;;;24.75;23.50;;;;;16.55;45.36;102201.91;5074821;28;45409;-76
2024/01/29 05:42:52;;;;;;;;;26.50;24.25;;;;;16.65;45.29;102207.78;5056188;28;57926;-75
2024/01/29 05:45:18;;;;;;;;;21.75;20.50;;;;;16.65;45.02;102213.22;5074532;28;45526;-75
2024/01/29 05:47:44;;;;;;;;;24.75;22.50;;;;;16.71;45.00;102199.38;5074633;28;45355;-76
2024/01/29 05:50:09;;;;;;;;;22.50;20.50;;;;;16.49;45.24;102188.66;5074530;28;52970;-75
2024/01/29 05:52:35;;;;;;;;;24.75;24.75;;;;;16.56;45.12;102197.38;5074863;28;45378;-76
2024/01/29 05:55:01;;;;;;;;;26.25;26.25;;;;;16.62;45.66;102210.63;5074607;28;45555;-75
2024/01/29 05:57:27;;;;;;;;;26.25;23.75;;;;;16.74;44.90;102199.22;5073305;28;45966;-76
2024/01/29 05:59:53;;;;;;;;;23.75;23.75;;;;;16.74;44.99;102210.06;5056456;28;46734;-78
2024/01/29 06:02:18;;;;;;;;;26.75;25.75;;;;;16.74;45.05;102206.47;5074756;28;45460;-76
2024/01/29 06:04:44;;;;;;;;;21.50;21.50;;;;;16.62;45.43;102205.22;5056561;28;45334;-76
2024/01/29 06:07:09;;;;;;;;;23.00;22.75;;;;;16.69;45.20;102214.81;5064674;28;46108;-76
2024/01/29 06:09:34;;;;;;;;;22.50;21.25;;;;;16.66;45.16;102208.69;5065337;28;46017;-75
2024/01/29 06:12:00;;;;;;;;;25.50;24.25;;;;;16.59;45.45;102203.50;5074519;28;45375;-74
2024/01/29 06:14:26;;;;;;;;;23.25;18.00;;;;;16.67;45.38;102216.72;5075008;28;45406;-77
2024/01/29 06:16:52;;;;;;;;;22.50;22.50;;;;;16.73;45.51;102226.38;5074656;28;45533;-76
2024/01/29 06:19:18;;;;;;;;;22.75;22.50;;;;;16.80;45.33;102236.84;5074057;28;45834;-75
2024/01/29 06:21:48;;;;;;;;;23.00;23.00;;;;;16.72;45.24;102221.91;5074406;28;45360;-76
2024/01/29 06:24:14;;;;;;;;;21.50;20.25;;;;;16.86;45.27;102236.53;5074543;28;45337;-77
2024/01/29 06:26:41;;;;;;;;;20.00;19.25;;;;;16.88;45.11;102241.88;5074455;28;45618;-74
2024/01/29 06:29:06;;;;;;;;;24.75;21.25;;;;;16.78;45.14;102217.06;5074370;28;46018;-77
2024/01/29 06:31:32;;;;;;;;;21.75;19.25;;;;;16.84;45.12;102227.59;5073917;28;45439;-76
2024/01/29 06:33:57;;;;;;;;;20.75;18.50;;;;;16.79;44.79;102216.13;5074289;28;45521;-76
2024/01/29 06:36:23;;;;;;;;;25.25;21.50;;;;;16.98;44.86;102241.38;5074555;28;45484;-78
2024/01/29 06:38:48;;;;;;;;;21.00;20.00;;;;;16.95;44.80;102240.63;5074357;28;45632;-76
2024/01/29 06:41:21;;;;;;;;;22.50;22.50;;;;;16.98;44.62;102245.91;5056110;28;45517;-78
2024/01/29 06:43:46;;;;;;;;;22.50;21.00;;;;;16.97;44.90;102255.00;5056021;28;45304;-76
2024/01/29 06:46:12;;;;;;;;;25.50;19.75;;;;;16.94;44.58;102261.44;5074159;28;45393;-76
2024/01/29 06:48:37;;;;;;;;;25.75;24.00;;;;;16.93;44.68;102261.50;5073700;28;46041;-75
2024/01/29 06:51:03;;;;;;;;;20.75;20.50;;;;;16.92;44.68;102249.81;5055999;28;45757;-77
2024/01/29 06:53:29;;;;;;;;;23.25;17.50;;;;;16.93;44.72;102246.13;5074489;28;45338;-76
2024/01/29 06:55:54;;;;;;;;;21.00;19.75;;;;;17.03;44.76;102255.56;5074031;28;45435;-76
2024/01/29 06:58:20;;;;;;;;;23.25;22.00;;;;;16.99;44.39;102253.09;5055734;28;46156;-77
2024/01/29 07:00:45;;;;;;;;;20.50;17.25;;;;;16.99;44.72;102250.38;5055672;28;45331;-74
2024/01/29 07:03:11;;;;;;;;;23.75;22.25;;;;;17.12;44.28;102258.78;5055622;28;45364;-75
2024/01/29 07:05:36;;;;;;;;;28.50;22.50;;;;;17.06;44.60;102262.66;5076773;27;45378;-75
2024/01/29 07:08:02;;;;;;;;;22.75;22.75;;;;;17.00;44.67;102262.97;5082641;27;46464;-74
2024/01/29 07:10:28;;;;;;;;;22.00;21.00;;;;;16.84;44.51;102238.44;5073770;28;45370;-77
2024/01/29 07:12:53;;;;;;;;;21.50;21.00;;;;;17.01;44.34;102268.31;5074118;28;45660;-74
2024/01/29 07:15:19;;;;;;;;;23.50;22.75;;;;;17.05;44.15;102270.88;5073724;28;45498;-73
2024/01/29 07:17:45;;;;;;;;;26.50;20.50;;;;;17.11;44.18;102270.56;5073548;28;45362;-76
2024/01/29 07:20:11;;;;;;;;;22.00;22.00;;;;;17.13;44.35;102263.25;5073593;28;45286;-75
2024/01/29 07:22:38;;;;;;;;;24.00;23.50;;;;;17.21;44.01;102298.97;5072785;28;45625;-74
2024/01/29 07:25:08;;;;;;;;;19.50;19.50;;;;;17.22;44.28;102290.78;5072876;28;45659;-75
2024/01/29 07:27:34;;;;;;;;;14.25;14.25;;;;;17.16;44.22;102293.81;5072078;28;47109;-74
2024/01/29 07:30:00;;;;;;;;;22.75;22.75;;;;;17.00;44.16;102273.81;5073424;28;45326;-75
2024/01/29 07:32:31;;;;;;;;;17.25;17.25;;;;;17.15;44.36;102296.56;5075552;28;45451;-75
2024/01/29 07:34:58;;;;;;;;;19.00;17.00;;;;;17.08;44.07;102284.28;5070891;28;46567;-76
2024/01/29 07:37:23;;;;;;;;;20.25;20.25;;;;;17.02;44.40;102288.16;5072434;28;45867;-75
2024/01/29 07:39:49;;;;;;;;;19.50;19.50;;;;;17.12;44.29;102300.31;5054836;28;45655;-76
2024/01/29 07:42:14;;;;;;;;;25.00;19.50;;;;;16.99;44.37;102291.03;5072926;28;45374;-76
2024/01/29 07:44:39;;;;;;;;;18.00;16.50;;;;;17.05;44.47;102304.28;5076564;28;45588;-73
2024/01/29 07:47:05;;;;;;;;;17.50;16.00;;;;;17.01;44.22;102313.50;5075626;28;51976;-74
2024/01/29 07:49:31;;;;;;;;;20.50;18.50;;;;;17.00;44.08;102311.75;5074201;28;45366;-72
2024/01/29 07:51:57;;;;;;;;;21.00;20.50;;;;;16.98;44.35;102317.25;5075908;28;45391;-71
2024/01/29 07:54:23;;;;;;;;;20.00;17.25;;;;;16.98;44.50;102322.66;5057834;28;45593;-71
2024/01/29 07:56:48;;;;;;;;;21.00;19.00;;;;;17.00;44.19;102320.75;5075529;28;46907;-72
2024/01/29 07:59:13;;;;;;;;;19.50;19.50;;;;;17.01;44.42;102333.31;5076363;28;49020;-71
2024/01/29 08:01:39;;;;;;;;;18.75;18.25;;;;;16.88;44.45;102317.75;5076476;28;45414;-72
2024/01/29 08:04:05;;;;;;;;;19.75;16.75;;;;;16.90;44.56;102324.84;5073738;28;46917;-70
2024/01/29 08:06:31;;;;;;;;;19.50;18.50;;;;;16.90;44.34;102329.38;5077336;27;45456;-72
2024/01/29 08:08:57;;;;;;;;;21.50;21.50;;;;;16.96;44.47;102327.25;5076027;28;45254;-72
2024/01/29 08:11:22;;;;;;;;;21.25;20.75;;;;;16.93;44.21;102313.84;5074979;28;45419;-74
2024/01/29 08:13:48;;;;;;;;;21.25;20.00;;;;;16.97;44.46;102326.31;5075901;28;45339;-72
2024/01/29 08:16:13;;;;;;;;;20.25;19.50;;;;;16.91;44.40;102334.75;5076319;28;47177;-72
2024/01/29 08:18:38;;;;;;;;;19.00;17.00;;;;;16.69;44.46;102295.16;5075708;28;45372;-71
2024/01/29 08:21:04;;;;;;;;;20.25;20.00;;;;;16.92;44.54;102324.78;5076364;28;45409;-74
2024/01/29 08:23:29;;;;;;;;;20.00;18.00;;;;;17.03;44.67;102333.25;5057184;28;54156;-72
2024/01/29 08:25:55;;;;;;;;;20.75;18.75;;;;;17.06;44.51;102330.41;5075647;28;46808;-71
2024/01/29 08:28:21;;;;;;;;;21.00;21.00;;;;;17.01;44.50;102318.94;5075835;28;45432;-72
2024/01/29 08:30:46;;;;;;;;;19.00;19.00;;;;;16.90;44.96;102318.56;5076068;28;45551;-72
2024/01/29 08:33:12;;;;;;;;;18.50;14.50;;;;;17.05;44.59;102325.06;5075838;28;45303;-72
2024/01/29 08:35:37;;;;;;;;;15.00;15.00;;;;;16.96;44.32;102319.13;5076011;28;45416;-71
2024/01/29 08:38:03;;;;;;;;;22.00;19.75;;;;;16.96;44.81;102331.81;5075912;28;45330;-73
2024/01/29 08:40:28;;;;;;;;;17.00;17.00;;;;;17.01;44.66;102327.06;5076347;28;45320;-71
2024/01/29 08:42:53;;;;;;;;;22.25;20.75;;;;;16.88;44.56;102315.03;5057467;28;45521;-72
2024/01/29 08:45:19;;;;;;;;;21.75;21.75;;;;;16.96;44.66;102332.69;5076926;27;45947;-72
2024/01/29 08:47:44;;;;;;;;;24.00;22.50;;;;;16.90;44.74;102327.56;5076991;27;45172;-71
2024/01/29 08:50:09;;;;;;;;;20.75;20.25;;;;;16.95;44.63;102340.88;5075798;28;45389;-72
2024/01/29 08:52:35;;;;;;;;;21.00;20.50;;;;;16.86;44.96;102331.34;5073500;28;45362;-73
2024/01/29 08:55:01;;;;;;;;;26.00;23.50;;;;;16.95;44.93;102328.22;5073579;28;55073;-72
2024/01/29 08:57:28;;;;;;;;;17.00;15.25;;;;;17.05;44.77;102325.94;5075279;28;45165;-72
2024/01/29 08:59:53;;;;;;;;;22.50;22.00;;;;;17.15;44.74;102332.69;5075037;28;45406;-72
2024/01/29 09:02:18;;;;;;;;;25.75;22.00;;;;;17.18;44.78;102327.09;5074992;28;45287;-71
2024/01/29 09:04:44;;;;;;;;;30.25;25.00;;;;;17.31;44.60;102333.69;5074815;28;45365;-71
2024/01/29 09:07:09;;;;;;;;;21.00;19.75;;;;;17.36;44.29;102320.78;5086387;27;45495;-72
2024/01/29 09:09:35;;;;;;;;;20.50;19.25;;;;;17.43;44.45;102326.81;5075473;28;45943;-72
2024/01/29 09:12:00;;;;;;;;;19.25;17.75;;;;;17.52;44.48;102330.91;5075049;28;45520;-71
2024/01/29 09:14:27;;;;;;;;;18.50;18.50;;;;;17.62;44.41;102321.34;5074955;28;46178;-71
2024/01/29 09:16:52;;;;;;;;;21.50;21.50;;;;;17.76;44.27;102324.28;5074784;28;45428;-72
2024/01/29 09:19:20;;;;;;;;;18.00;18.00;;;;;17.82;44.25;102318.53;5074431;28;45319;-71
2024/01/29 09:21:50;;;;;;;;;22.50;21.50;;;;;17.93;43.79;102327.00;5074478;28;45472;-71
2024/01/29 09:24:17;;;;;;;;;17.50;17.50;;;;;17.93;43.27;102316.16;5075079;28;45498;-71
2024/01/29 09:26:42;;;;;;;;;21.00;20.00;;;;;18.12;43.49;102322.34;5075125;28;45326;-72
2024/01/29 09:29:08;;;;;;;;;22.25;18.50;;;;;18.02;43.57;102317.50;5074752;28;45365;-72
2024/01/29 09:31:34;;;;;;;;;20.00;19.25;;;;;17.99;43.59;102309.50;5074698;28;45365;-72
2024/01/29 09:34:00;;;;;;;;;22.75;21.25;;;;;18.11;43.69;102328.78;5074516;28;45282;-71
2024/01/29 09:36:25;;;;;;;;;21.50;21.50;;;;;18.21;43.50;102336.41;5075016;28;45471;-73
2024/01/29 09:38:50;;;;;;;;;22.25;21.00;;;;;18.21;43.52;102326.41;5075102;28;45334;-71
2024/01/29 09:41:16;;;;;;;;;18.00;16.25;;;;;18.35;43.43;102342.00;5075011;28;45611;-72
2024/01/29 09:43:46;;;;;;;;;20.25;19.75;;;;;18.31;43.58;102338.56;5074814;28;46141;-73
2024/01/29 09:46:15;;;;;;;;;20.75;20.00;;;;;18.33;43.92;102343.91;5074673;28;45600;-71
2024/01/29 09:48:41;;;;;;;;;23.25;21.75;;;;;18.40;43.35;102334.47;5074908;28;45244;-71
2024/01/29 09:51:16;;;;;;;;;21.00;20.75;;;;;18.51;43.52;102348.38;5074926;28;45246;-70
2024/01/29 09:53:41;;;;;;;;;21.50;20.00;;;;;18.57;43.43;102349.91;5085037;27;45582;-71
2024/01/29 09:56:07;;;;;;;;;26.00;24.00;;;;;18.53;43.41;102341.03;5075379;28;45258;-73
2024/01/29 09:58:32;;;;;;;;;22.25;19.75;;;;;18.61;43.41;102346.06;5074818;28;45292;-72
2024/01/29 10:00:59;;;;;;;;;22.25;21.00;;;;;18.64;43.23;102348.59;5074828;28;46188;-72
2024/01/29 10:03:32;;;;;;;;;21.75;20.50;;;;;18.56;43.40;102319.09;5074255;28;46286;-72
2024/01/29 10:05:58;;;;;;;;;20.00;20.00;;;;;18.68;43.01;102340.22;5079424;27;45360;-71
2024/01/29 10:08:27;;;;;;;;;21.00;21.00;;;;;18.81;43.21;102354.88;5078956;27;45586;-72
2024/01/29 10:10:53;;;;;;;;;20.00;20.00;;;;;18.87;43.01;102351.84;5056521;28;47440;-72
2024/01/29 10:13:18;;;;;;;;;21.50;20.25;;;;;18.77;43.13;102334.28;5073047;28;46177;-73
2024/01/29 10:15:44;;;;;;;;;22.25;20.75;;;;;18.90;43.00;102329.91;5074024;28;59976;-72
2024/01/29 10:18:12;;;;;;;;;22.50;21.00;;;;;18.94;42.72;102341.50;5074249;28;45294;-71
2024/01/29 10:20:37;;;;;;;;;19.25;18.50;;;;;18.99;42.97;102336.69;5056034;28;46629;-72
2024/01/29 10:23:03;;;;;;;;;22.50;20.50;;;;;19.04;43.00;102333.72;5039337;28;47151;-72
2024/01/29 10:25:29;;;;;;;;;20.50;19.00;;;;;19.13;42.84;102347.69;5074341;28;45362;-70
2024/01/29 10:28:11;;;;;;;;;25.50;25.00;;;;;19.13;42.82;102344.97;5074104;28;45483;-71
2024/01/29 10:30:41;;;;;;;;;18.75;18.75;;;;;19.14;42.68;102338.53;5073911;28;45355;-71
2024/01/29 10:33:07;;;;;;;;;23.75;22.00;;;;;19.24;42.41;102341.63;5074168;28;46626;-70
2024/01/29 10:35:32;;;;;;;;;23.50;21.00;;;;;19.27;42.57;102334.16;5074339;28;45356;-71
2024/01/29 10:38:03;;;;;;;;;20.25;20.25;;;;;19.30;42.68;102329.53;5074232;28;45298;-72
2024/01/29 10:40:30;;;;;;;;;21.50;21.50;;;;;19.37;42.72;102328.22;5074493;28;45397;-71
2024/01/29 10:42:57;;;;;;;;;28.00;25.00;;;;;19.47;42.49;102332.16;5074505;28;45372;-72
2024/01/29 10:45:24;;;;;;;;;20.75;20.75;;;;;19.47;42.49;102330.34;5074389;28;45639;-72
2024/01/29 10:47:53;;;;;;;;;24.50;23.00;;;;;19.49;42.65;102331.09;5073993;28;45378;-71
2024/01/29 10:50:20;;;;;;;;;24.00;23.25;;;;;19.57;42.29;102325.22;5073707;27;45430;-72
2024/01/29 10:52:47;;;;;;;;;20.75;19.75;;;;;19.56;42.23;102327.06;5073673;27;46374;-71
2024/01/29 10:55:16;;;;;;;;;23.75;21.75;;;;;19.70;42.28;102337.16;5055387;28;45350;-70
2024/01/29 10:57:47;;;;;;;;;23.50;23.50;;;;;19.74;42.02;102324.22;5073953;27;45473;-70
2024/01/29 11:00:18;;;;;;;;;19.50;19.25;;;;;19.85;41.86;102328.06;5074164;28;45383;-71
2024/01/29 11:02:44;;;;;;;;;23.75;23.75;;;;;19.84;42.21;102318.16;5074091;28;45484;-71
2024/01/29 11:05:13;;;;;;;;;24.50;24.00;;;;;19.94;41.94;102310.31;5073848;28;45375;-72
2024/01/29 11:07:42;;;;;;;;;25.00;21.50;;;;;20.02;41.92;102318.91;5064182;28;45549;-72
2024/01/29 11:10:13;;;;;;;;;23.50;22.00;;;;;20.08;41.92;102312.19;5068980;28;45187;-71
2024/01/29 11:12:40;;;;;;;;;21.25;19.00;;;;;20.15;41.95;102317.19;5055443;28;47153;-72
2024/01/29 11:15:06;;;;;;;;;18.75;18.75;;;;;20.13;41.80;102300.06;5073753;28;45427;-78
2024/01/29 11:17:32;;;;;;;;;22.00;22.00;;;;;20.28;41.61;102296.41;5073890;28;45442;-77
2024/01/29 11:20:09;;;;;;;;;23.50;22.50;;;;;20.79;40.69;102302.28;5077074;28;45632;-77
2024/01/29 11:22:38;;;;;;;;;23.50;21.25;;;;;21.36;39.33;102294.03;5054138;28;47794;-74
2024/01/29 11:25:08;;;;;;;;;23.00;21.50;;;;;22.13;38.80;102296.06;5072528;28;45505;-74
2024/01/29 11:27:37;;;;;;;;;20.75;19.25;;;;;23.00;37.75;102293.44;5077169;28;45395;-74
2024/01/29 11:30:15;;;;;;;;;22.50;19.75;;;;;23.79;35.64;102273.75;5076876;28;45609;-73
2024/01/29 11:32:40;;;;;;;;;20.75;17.50;;;;;24.70;34.66;102282.94;5074952;28;46146;-76
2024/01/29 11:35:27;;;;;;;;;22.75;20.00;;;;;25.53;33.55;102265.97;5077252;28;45269;-75
2024/01/29 11:37:54;;;;;;;;;17.50;17.25;;;;;26.38;32.42;102266.84;5092721;27;45340;-74
2024/01/29 11:40:33;;;;;;;;;16.00;15.75;;;;;27.33;30.31;102257.25;5076977;28;45432;-73
2024/01/29 11:43:03;;;;;;;;;18.75;17.50;;;;;28.05;29.54;102244.94;5076395;28;45425;-74
2024/01/29 11:45:29;;;;;;;;;16.25;16.25;;;;;28.61;28.72;102253.22;5076775;28;45443;-75
2024/01/29 11:47:55;;;;;;;;;21.75;20.25;;;;;29.26;27.92;102245.81;5076408;28;45357;-75
2024/01/29 11:50:20;;;;;;;;;19.75;19.75;;;;;29.63;27.13;102238.28;5076638;28;45377;-73
2024/01/29 11:52:46;;;;;;;;;21.25;19.50;;;;;29.96;27.00;102244.97;5076522;28;45460;-75
2024/01/29 11:55:14;;;;;;;;;19.25;18.25;;;;;30.51;27.23;102246.59;5076789;28;45588;-75
2024/01/29 11:57:44;;;;;;;;;17.25;17.25;;;;;30.70;26.31;102254.69;5076581;28;45184;-74
2024/01/29 12:00:10;;;;;;;;;18.50;17.50;;;;;30.95;25.91;102241.81;5076425;28;45400;-74
2024/01/29 12:02:36;;;;;;;;;17.75;16.25;;;;;31.25;26.05;102245.91;5076128;28;47653;-73
2024/01/29 12:05:01;;;;;;;;;17.00;15.75;;;;;31.41;25.09;102251.50;5057573;28;45971;-74
2024/01/29 12:07:26;;;;;;;;;16.75;16.75;;;;;31.66;24.67;102239.44;5088039;27;45396;-74
2024/01/29 12:09:52;;;;;;;;;21.00;19.25;;;;;31.82;24.73;102242.22;5076365;28;45356;-73
2024/01/29 12:12:17;;;;;;;;;18.75;15.75;;;;;31.52;25.38;102237.31;5076024;28;52195;-72
2024/01/29 12:14:43;;;;;;;;;8.25;8.25;;;;;30.55;26.30;102246.09;5076332;28;47624;-75
2024/01/29 12:17:12;;;;;;;;;9.75;8.25;;;;;30.05;26.79;102241.25;5076187;28;45370;-73
2024/01/29 12:19:37;;;;;;;;;8.25;8.25;;;;;29.72;27.46;102240.09;5058385;28;45378;-73
2024/01/29 12:22:03;;;;;;;;;6.50;5.75;;;;;28.46;29.21;102252.00;5076051;28;46229;-75
2024/01/29 12:24:29;;;;;;;;;8.75;7.00;;;;;27.35;29.96;102249.72;5075928;28;45449;-76
2024/01/29 12:26:54;;;;;;;;;7.50;6.25;;;;;26.69;31.63;102254.84;5076560;28;45362;-73
2024/01/29 12:29:20;;;;;;;;;6.00;6.00;;;;;25.54;33.12;102252.13;5073922;28;45309;-72
2024/01/29 12:31:45;;;;;;;;;4.50;4.50;;;;;25.21;33.56;102233.03;5075900;28;46057;-75
2024/01/29 12:34:20;;;;;;;;;2.00;0.25;;;;;25.01;33.97;102242.91;5073226;28;45462;-73
2024/01/29 12:36:53;;;;;;;;;10.00;6.50;;;;;24.85;34.66;102242.41;5076001;28;45508;-74
2024/01/29 12:39:18;;;;;;;;;8.75;7.75;;;;;24.57;34.83;102235.59;5076380;28;45575;-74
2024/01/29 12:41:44;;;;;;;;;7.50;6.00;;;;;24.26;35.62;102228.94;5076020;28;46084;-75
2024/01/29 12:44:10;;;;;;;;;7.00;6.25;;;;;24.29;35.66;102233.31;5057873;28;45470;-76
2024/01/29 12:46:36;;;;;;;;;9.25;7.25;;;;;24.05;36.35;102231.50;5075471;28;45442;-73
2024/01/29 12:49:02;;;;;;;;;7.50;5.75;;;;;24.02;36.37;102237.22;5073241;28;45337;-73
2024/01/29 12:51:28;;;;;;;;;6.75;6.75;;;;;23.96;36.09;102210.31;5075943;28;47187;-76
2024/01/29 12:53:55;;;;;;;;;7.25;6.00;;;;;23.92;36.32;102221.63;5074013;28;45221;-75
2024/01/29 12:56:23;;;;;;;;;7.25;7.25;;;;;23.87;36.56;102230.22;5076148;28;45260;-74
2024/01/29 12:58:48;;;;;;;;;7.00;5.50;;;;;23.84;36.42;102216.75;5075964;28;45366;-74
2024/01/29 13:01:13;;;;;;;;;7.00;6.00;;;;;23.55;37.25;102223.63;5075969;28;45331;-72
2024/01/29 13:03:39;;;;;;;;;10.25;8.50;;;;;23.59;37.27;102211.44;5075841;28;45393;-73
2024/01/29 13:06:05;;;;;;;;;6.75;6.00;;;;;23.55;37.43;102232.72;5075621;28;45378;-74
2024/01/29 13:08:31;;;;;;;;;8.00;7.00;;;;;23.42;37.55;102223.66;5078781;27;45487;-73
2024/01/29 13:10:57;;;;;;;;;8.00;8.00;;;;;23.41;37.61;102200.00;5075715;28;46188;-75
2024/01/29 13:13:22;;;;;;;;;6.75;6.75;;;;;23.09;38.75;102224.34;5075771;28;45400;-72
2024/01/29 13:15:51;;;;;;;;;6.25;5.00;;;;;23.14;38.44;102196.66;5057574;28;45719;-73
2024/01/29 13:18:17;;;;;;;;;7.75;6.75;;;;;23.23;38.26;102212.34;5073796;28;45367;-73
2024/01/29 13:20:42;;;;;;;;;8.00;8.00;;;;;23.15;38.99;102212.06;5075326;28;45908;-73
2024/01/29 13:23:09;;;;;;;;;4.50;4.50;;;;;23.12;38.76;102209.59;5075363;28;45260;-73
2024/01/29 13:25:35;;;;;;;;;8.50;8.00;;;;;23.24;38.54;102214.97;5075369;28;45397;-74
2024/01/29 13:28:00;;;;;;;;;8.00;7.00;;;;;23.31;38.62;102207.16;5075153;28;45385;-72
2024/01/29 13:30:25;;;;;;;;;7.25;7.00;;;;;23.48;38.27;102219.59;5075261;28;46118;-74
2024/01/29 13:32:51;;;;;;;;;8.00;6.50;;;;;23.58;38.32;102207.81;5074823;28;45538;-72
2024/01/29 13:35:16;;;;;;;;;7.00;5.75;;;;;23.68;38.06;102218.94;5075393;28;45318;-74
2024/01/29 13:37:42;;;;;;;;;8.50;6.25;;;;;23.34;38.67;102194.13;5074850;28;45339;-73
2024/01/29 13:40:09;;;;;;;;;5.75;5.75;;;;;23.36;38.30;102204.97;5074124;28;45734;-73
2024/01/29 13:42:35;;;;;;;;;5.25;5.25;;;;;23.53;38.23;102198.25;5074867;28;45469;-74
2024/01/29 13:45:00;;;;;;;;;7.25;7.25;;;;;23.57;37.87;102205.19;5057088;28;45525;-74
2024/01/29 13:47:25;;;;;;;;;7.00;7.00;;;;;23.35;38.67;102200.50;5074801;28;45325;-73
2024/01/29 13:49:51;;;;;;;;;5.25;5.25;;;;;23.51;38.33;102205.69;5074974;28;45309;-75
2024/01/29 13:52:17;;;;;;;;;5.50;5.50;;;;;23.38;38.36;102200.25;5075255;28;45227;-73
2024/01/29 13:54:42;;;;;;;;;5.50;5.50;;;;;23.54;38.55;102205.47;5075252;28;45298;-74
2024/01/29 13:57:07;;;;;;;;;6.00;6.00;;;;;23.62;38.19;102209.34;5074744;28;45719;-73
2024/01/29 13:59:35;;;;;;;;;6.00;6.00;;;;;23.16;38.64;102192.81;5074719;28;45262;-74
2024/01/29 14:02:00;;;;;;;;;4.00;4.00;;;;;23.01;39.16;102200.31;5072415;28;45441;-74
2024/01/29 14:04:25;;;;;;;;;7.00;7.00;;;;;23.28;39.01;102207.44;5074310;28;50391;-74
2024/01/29 14:06:58;;;;;;;;;6.75;6.50;;;;;23.29;38.99;102198.22;5085744;27;45606;-75
2024/01/29 14:09:24;;;;;;;;;5.50;5.50;;;;;23.26;38.90;102204.81;5074709;28;45842;-75
2024/01/29 14:11:50;;;;;;;;;8.75;7.50;;;;;23.31;39.07;102201.69;5056109;28;45371;-75
2024/01/29 14:14:15;;;;;;;;;7.00;5.00;;;;;23.50;39.20;102209.41;5074461;28;45342;-74
2024/01/29 14:16:40;;;;;;;;;5.25;5.25;;;;;23.37;38.90;102195.78;5074075;28;45662;-73
2024/01/29 14:19:06;;;;;;;;;7.25;5.75;;;;;23.34;39.18;102187.78;5074022;28;51341;-74
2024/01/29 14:21:31;;;;;;;;;7.25;6.50;;;;;23.49;38.71;102183.91;5073961;28;51492;-74
2024/01/29 14:23:56;;;;;;;;;2.50;2.50;;;;;23.74;38.33;102189.22;5074666;28;45313;-75
2024/01/29 14:26:22;;;;;;;;;5.50;5.50;;;;;23.74;38.23;102196.53;5073778;28;55395;-75
2024/01/29 14:28:47;;;;;;;;;5.75;5.00;;;;;24.08;38.13;102195.63;5074227;28;45926;-74
2024/01/29 14:31:13;;;;;;;;;6.50;5.25;;;;;24.31;37.19;102174.66;5073607;28;45448;-73
2024/01/29 14:33:40;;;;;;;;;9.50;6.25;;;;;24.36;36.95;102161.44;5074322;28;45315;-75
2024/01/29 14:36:06;;;;;;;;;7.75;7.00;;;;;24.83;37.10;102181.34;5073654;28;45384;-75
2024/01/29 14:38:31;;;;;;;;;6.50;6.25;;;;;25.07;35.94;102172.94;5073722;28;46869;-76
2024/01/29 14:40:57;;;;;;;;;7.50;7.00;;;;;25.38;36.25;102173.94;5074034;28;45353;-74
2024/01/29 14:43:22;;;;;;;;;6.25;5.50;;;;;25.64;35.30;102169.84;5074743;28;45333;-76
2024/01/29 14:45:48;;;;;;;;;7.25;6.00;;;;;25.80;35.53;102164.75;5071764;27;45422;-75
2024/01/29 14:48:13;;;;;;;;;5.00;5.00;;;;;25.96;35.15;102173.38;5073938;28;45899;-74
2024/01/29 14:50:38;;;;;;;;;7.50;6.25;;;;;26.04;34.52;102180.06;5055854;28;45685;-73
2024/01/29 14:53:04;;;;;;;;;6.75;5.25;;;;;25.96;35.02;102170.63;5077152;28;45350;-74
2024/01/29 14:55:29;;;;;;;;;7.75;7.75;;;;;25.93;34.99;102175.56;5077529;28;45334;-73
2024/01/29 14:57:55;;;;;;;;;6.00;6.00;;;;;25.97;34.83;102169.63;5078226;28;45634;-73
2024/01/29 15:00:21;;;;;;;;;6.50;5.50;;;;;25.91;34.71;102155.56;5077102;28;45887;-74
2024/01/29 15:02:47;;;;;;;;;6.50;6.50;;;;;25.88;35.07;102170.44;5077771;28;45298;-74
2024/01/29 15:05:12;;;;;;;;;6.00;6.00;;;;;25.41;35.58;102162.69;5077334;28;45377;-76
2024/01/29 15:07:39;;;;;;;;;6.50;6.25;;;;;25.63;35.39;102162.59;5088837;27;46128;-73
2024/01/29 15:10:07;;;;;;;;;7.00;6.50;;;;;25.69;35.43;102161.22;5077497;28;45436;-75
2024/01/29 15:12:33;;;;;;;;;5.00;5.00;;;;;25.74;34.99;102164.44;5077759;28;45324;-72
2024/01/29 15:14:58;;;;;;;;;7.75;6.00;;;;;25.47;35.26;102171.28;5077295;28;45304;-72
2024/01/29 15:17:24;;;;;;;;;5.25;5.25;;;;;25.15;36.11;102159.44;5077076;28;45432;-74
2024/01/29 15:19:50;;;;;;;;;4.50;4.50;;;;;25.05;36.14;102169.44;5076964;28;45781;-74
2024/01/29 15:22:15;;;;;;;;;7.00;7.00;;;;;24.97;36.77;102172.84;5077234;28;45377;-73
2024/01/29 15:24:41;;;;;;;;;4.00;4.00;;;;;24.92;36.19;102161.41;5077073;28;45381;-75
2024/01/29 15:27:06;;;;;;;;;7.25;6.50;;;;;24.99;36.53;102169.97;5077019;28;46036;-76
2024/01/29 15:29:32;;;;;;;;;6.50;6.50;;;;;25.15;35.97;102173.16;5076796;28;55609;-73
2024/01/29 15:31:57;;;;;;;;;7.00;5.25;;;;;25.17;35.94;102183.03;5077526;28;45318;-73
2024/01/29 15:34:23;;;;;;;;;5.75;5.50;;;;;25.09;36.62;102185.53;5076342;28;45675;-75
2024/01/29 15:36:48;;;;;;;;;8.75;5.00;;;;;25.09;36.58;102180.06;5076689;28;45468;-74
2024/01/29 15:39:14;;;;;;;;;5.75;5.75;;;;;25.06;36.81;102188.53;5076983;28;45381;-75
2024/01/29 15:41:40;;;;;;;;;7.00;7.00;;;;;24.83;36.53;102195.03;5058706;28;45362;-74
2024/01/29 15:44:05;;;;;;;;;5.50;5.50;;;;;24.82;37.12;102185.06;5076755;28;45355;-73
2024/01/29 15:46:31;;;;;;;;;7.50;6.50;;;;;24.75;37.30;102194.81;5076886;28;45341;-74
2024/01/29 15:48:57;;;;;;;;;8.00;6.75;;;;;24.67;36.91;102192.66;5076604;28;45365;-75
2024/01/29 15:51:22;;;;;;;;;7.75;7.00;;;;;24.60;37.24;102198.78;5077312;28;45299;-74
2024/01/29 15:53:48;;;;;;;;;5.00;3.75;;;;;24.38;37.30;102195.06;5076166;28;45473;-75
2024/01/29 15:56:15;;;;;;;;;6.00;5.00;;;;;24.39;37.88;102195.94;5076453;28;46962;-77
2024/01/29 15:58:40;;;;;;;;;8.00;7.00;;;;;24.31;37.49;102188.34;5058148;28;45350;-73
2024/01/29 16:01:06;;;;;;;;;5.75;5.00;;;;;24.14;38.52;102197.91;5058473;28;45410;-73
2024/01/29 16:03:36;;;;;;;;;7.00;7.00;;;;;24.12;38.52;102199.00;5057589;28;45493;-75
2024/01/29 16:06:02;;;;;;;;;5.75;5.75;;;;;23.95;38.54;102194.00;5083184;27;45436;-75
2024/01/29 16:08:27;;;;;;;;;6.00;6.00;;;;;23.86;38.81;102183.78;5061431;28;45450;-73
2024/01/29 16:10:53;;;;;;;;;9.00;6.75;;;;;23.79;38.98;102196.22;5077028;28;45373;-74
2024/01/29 16:13:18;;;;;;;;;6.50;6.50;;;;;23.62;38.94;102186.56;5076724;28;45456;-74
2024/01/29 16:15:44;;;;;;;;;7.75;7.75;;;;;23.51;39.10;102187.41;5076321;28;45680;-76
2024/01/29 16:18:09;;;;;;;;;9.25;8.25;;;;;23.58;39.35;102193.25;5076542;28;45442;-79
2024/01/29 16:20:34;;;;;;;;;6.25;5.00;;;;;23.53;39.37;102199.13;5059078;28;45520;-77
2024/01/29 16:23:02;;;;;;;;;5.00;3.75;;;;;23.47;39.40;102193.22;5076168;28;45468;-79
2024/01/29 16:25:28;;;;;;;;;7.00;7.00;;;;;23.29;39.70;102177.22;5076259;28;45578;-77
2024/01/29 16:27:53;;;;;;;;;6.75;6.75;;;;;23.36;40.00;102202.25;5075913;28;50976;-79
2024/01/29 16:30:18;;;;;;;;;7.00;7.00;;;;;23.24;40.25;102195.81;5057633;28;55417;-78
2024/01/29 16:32:45;;;;;;;;;8.25;8.25;;;;;23.21;40.24;102209.75;5057243;28;50777;-78
2024/01/29 16:35:12;;;;;;;;;9.75;7.75;;;;;22.74;40.78;102164.09;5076236;28;47587;-80
2024/01/29 16:37:37;;;;;;;;;9.00;7.50;;;;;22.92;41.05;102214.69;5075823;28;45334;-73
2024/01/29 16:40:04;;;;;;;;;7.50;7.00;;;;;22.79;40.98;102212.97;5076322;28;45211;-74
2024/01/29 16:42:29;;;;;;;;;6.00;6.00;;;;;22.71;41.00;102208.06;5075996;28;45452;-73